Terminal Aerodrome Forecast
Issued by NWS Duluth, MN

Home | Current Version | Previous Version | Text Only | Print | Product List | Glossary On
Versions: 1 2 3 4 5 6 7 8 9 10 11 12 13 14 15 16 17
649
FTUS43 KDLH 200535
TAFDLH
TAF
KDLH 200535Z 2006/2106 VRB04KT P6SM SCT200
     FM201400 17007KT P6SM BKN150
     FM202200 23011KT P6SM BKN120
     FM210500 28013G22KT P6SM SCT025 BKN050=

USA.gov is the U.S. government's official web portal to all federal, state and local government web resources and services.